createdAt,value
2019-02-06T00:01:02.156Z,21.62
2019-02-06T00:03:30.769Z,33.18
2019-02-06T00:05:59.449Z,21.48
2019-02-06T00:08:28.663Z,27.85
2019-02-06T00:10:57.263Z,24.25
2019-02-06T00:13:26.012Z,26.00
2019-02-06T00:15:56.482Z,31.52
2019-02-06T00:18:25.168Z,29.85
2019-02-06T00:20:53.839Z,27.30
2019-02-06T00:23:22.374Z,27.87
2019-02-06T00:25:50.992Z,24.27
2019-02-06T00:28:19.592Z,32.17
2019-02-06T00:30:48.688Z,24.95
2019-02-06T00:33:17.219Z,37.08
2019-02-06T00:35:45.838Z,35.55
2019-02-06T00:38:14.954Z,24.65
2019-02-06T00:40:43.602Z,33.90
2019-02-06T00:43:12.202Z,26.70
2019-02-06T00:45:41.135Z,24.65
2019-02-06T00:48:09.691Z,25.60
2019-02-06T00:50:38.429Z,38.15
2019-02-06T00:53:07.047Z,29.57
2019-02-06T00:55:35.647Z,22.58
2019-02-06T00:58:04.942Z,25.20
2019-02-06T01:00:33.983Z,24.87
2019-02-06T01:03:02.672Z,26.12
2019-02-06T01:05:38.434Z,22.75
2019-02-06T01:08:01.881Z,32.13
2019-02-06T01:10:30.479Z,23.98
2019-02-06T01:12:59.099Z,21.60
2019-02-06T01:15:27.627Z,24.23
2019-02-06T01:17:56.526Z,22.90
2019-02-06T01:20:25.148Z,24.90
2019-02-06T01:22:53.678Z,27.00
2019-02-06T01:25:22.226Z,30.60
2019-02-06T01:27:50.830Z,30.15
2019-02-06T01:30:24.158Z,27.95
2019-02-06T01:32:52.755Z,22.17
2019-02-06T01:35:21.371Z,27.35
2019-02-06T01:37:49.972Z,27.65
2019-02-06T01:40:20.539Z,25.65
2019-02-06T01:42:49.325Z,33.92
2019-02-06T01:45:19.574Z,28.25
2019-02-06T01:47:48.191Z,26.07
2019-02-06T01:50:19.033Z,28.87
2019-02-06T01:52:47.714Z,24.72
2019-02-06T01:55:16.781Z,20.68
2019-02-06T01:57:45.474Z,35.43
2019-02-06T02:00:24.360Z,17.85
2019-02-06T02:02:53.340Z,28.23
2019-02-06T02:05:22.806Z,24.00
2019-02-06T02:07:51.578Z,22.75
2019-02-06T02:10:21.166Z,19.25
2019-02-06T02:12:50.343Z,21.52
2019-02-06T02:15:20.407Z,22.20
2019-02-06T02:17:49.322Z,22.93
2019-02-06T02:20:22.937Z,30.12
2019-02-06T02:22:52.198Z,24.75
2019-02-06T02:25:21.086Z,26.10
2019-02-06T02:27:50.038Z,20.50
2019-02-06T02:30:23.390Z,20.45
2019-02-06T02:32:52.391Z,18.60
2019-02-06T02:35:20.926Z,25.02
2019-02-06T02:37:49.549Z,17.77
2019-02-06T02:40:18.217Z,18.77
2019-02-06T02:42:46.839Z,20.30
2019-02-06T02:45:17.369Z,17.75
2019-02-06T02:47:46.363Z,15.45
2019-02-06T02:50:15.027Z,22.45
2019-02-06T02:52:43.643Z,18.98
2019-02-06T02:55:13.311Z,20.60
2019-02-06T02:57:41.978Z,21.62
2019-02-06T03:00:28.453Z,15.68
2019-02-06T03:03:01.555Z,16.50
2019-02-06T03:05:31.847Z,18.00
2019-02-06T03:08:00.373Z,16.27
2019-02-06T03:10:28.915Z,17.30
2019-02-06T03:12:57.511Z,16.27
2019-02-06T03:15:26.064Z,18.62
2019-02-06T03:17:54.587Z,19.05
2019-02-06T03:20:23.182Z,24.05
2019-02-06T03:22:51.737Z,26.05
2019-02-06T03:25:20.338Z,23.65
2019-02-06T03:27:48.960Z,27.27
2019-02-06T03:30:18.932Z,30.82
2019-02-06T03:32:47.542Z,29.57
2019-02-06T03:35:18.006Z,38.80
2019-02-06T03:37:46.534Z,32.23
2019-02-06T03:40:17.606Z,28.87
2019-02-06T03:42:46.225Z,32.93
2019-02-06T03:45:15.500Z,31.65
2019-02-06T03:47:44.035Z,26.15
2019-02-06T03:50:20.439Z,29.75
2019-02-06T03:52:49.039Z,19.10
2019-02-06T03:55:17.729Z,27.73
2019-02-06T03:57:46.327Z,28.85
2019-02-06T04:00:19.727Z,36.10
2019-02-06T04:02:48.496Z,25.57
2019-02-06T04:05:17.383Z,20.27
2019-02-06T04:07:46.055Z,23.85
2019-02-06T04:10:18.901Z,24.45
2019-02-06T04:12:47.425Z,20.68
2019-02-06T04:15:16.717Z,29.50
2019-02-06T04:17:45.248Z,19.07
2019-02-06T04:20:15.216Z,18.95
2019-02-06T04:22:43.865Z,15.35
2019-02-06T04:25:14.895Z,16.20
2019-02-06T04:27:43.603Z,23.95
2019-02-06T04:30:17.664Z,19.50
2019-02-06T04:32:46.254Z,18.35
2019-02-06T04:35:15.747Z,17.82
2019-02-06T04:37:44.279Z,15.55
2019-02-06T04:40:18.746Z,16.37
2019-02-06T04:42:47.809Z,18.05
2019-02-06T04:45:18.376Z,24.95
2019-02-06T04:47:47.262Z,18.48
2019-02-06T04:50:17.233Z,23.42
2019-02-06T04:52:45.855Z,23.60
2019-02-06T04:55:16.605Z,19.65
2019-02-06T04:57:45.686Z,19.85
2019-02-06T05:00:18.581Z,17.73
2019-02-06T05:02:47.152Z,20.12
2019-02-06T05:05:15.819Z,19.20
2019-02-06T05:07:44.431Z,17.98
2019-02-06T05:10:14.509Z,22.77
2019-02-06T05:12:43.577Z,16.65
2019-02-06T05:15:14.563Z,17.87
2019-02-06T05:17:43.158Z,19.50
2019-02-06T05:20:17.656Z,21.00
2019-02-06T05:22:46.187Z,16.42
2019-02-06T05:25:14.721Z,25.45
2019-02-06T05:27:43.462Z,20.80
2019-02-06T05:30:12.258Z,18.32
2019-02-06T05:32:42.949Z,25.52
2019-02-06T05:35:11.320Z,22.10
2019-02-06T05:37:39.871Z,19.95
2019-02-06T05:40:10.743Z,20.27
2019-02-06T05:42:39.335Z,23.77
2019-02-06T05:45:12.338Z,24.18
2019-02-06T05:47:41.031Z,22.22
2019-02-06T05:50:17.633Z,18.15
2019-02-06T05:52:46.398Z,17.25
2019-02-06T05:55:16.786Z,21.45
2019-02-06T05:57:45.951Z,20.55
2019-02-06T06:00:27.163Z,16.65
2019-02-06T06:02:55.827Z,21.90
2019-02-06T06:05:24.433Z,15.40
2019-02-06T06:07:53.046Z,16.25
2019-02-06T06:10:21.587Z,20.50
2019-02-06T06:12:50.118Z,15.83
2019-02-06T06:15:20.190Z,18.20
2019-02-06T06:17:49.179Z,19.10
2019-02-06T06:20:21.079Z,21.35
2019-02-06T06:22:50.263Z,21.10
2019-02-06T06:25:20.509Z,18.00
2019-02-06T06:27:49.277Z,16.30
2019-02-06T06:30:20.349Z,24.60
2019-02-06T06:32:49.211Z,20.23
2019-02-06T06:35:18.025Z,19.32
2019-02-06T06:37:57.820Z,14.78
2019-02-06T06:40:23.362Z,14.00
2019-02-06T06:42:52.057Z,20.08
2019-02-06T06:45:23.290Z,21.15
2019-02-06T06:47:52.264Z,12.15
2019-02-06T06:50:23.333Z,16.57
2019-02-06T06:52:52.199Z,16.27
2019-02-06T06:55:20.891Z,21.57
2019-02-06T06:57:49.503Z,19.95
2019-02-06T07:00:29.397Z,17.30
2019-02-06T07:02:58.067Z,18.98
2019-02-06T07:05:26.684Z,15.23
2019-02-06T07:07:55.847Z,18.95
2019-02-06T07:10:24.819Z,15.78
2019-02-06T07:12:53.426Z,14.73
2019-02-06T07:15:24.770Z,16.97
2019-02-06T07:17:53.461Z,18.10
2019-02-06T07:20:22.125Z,15.50
2019-02-06T07:22:50.734Z,16.75
2019-02-06T07:25:19.994Z,18.35
2019-02-06T07:27:48.682Z,15.63
2019-02-06T07:30:20.271Z,26.07
2019-02-06T07:32:48.926Z,17.10
2019-02-06T07:35:17.553Z,14.75
2019-02-06T07:37:46.222Z,18.20
2019-02-06T07:40:16.218Z,26.45
2019-02-06T07:42:44.813Z,31.05
2019-02-06T07:45:16.294Z,24.65
2019-02-06T07:47:44.979Z,26.52
2019-02-06T07:50:25.177Z,23.90
2019-02-06T07:52:53.924Z,30.77
2019-02-06T07:55:22.522Z,39.75
2019-02-06T07:57:51.123Z,31.17
2019-02-06T08:00:19.742Z,32.03
2019-02-06T08:02:48.413Z,32.20
2019-02-06T08:05:20.952Z,31.37
2019-02-06T08:07:49.919Z,35.28
2019-02-06T08:10:21.359Z,32.60
2019-02-06T08:12:49.979Z,32.50
2019-02-06T08:15:19.969Z,37.53
2019-02-06T08:17:48.571Z,46.37
2019-02-06T08:20:22.286Z,40.00
2019-02-06T08:22:51.424Z,38.73
2019-02-06T08:25:21.856Z,31.20
2019-02-06T08:27:50.548Z,40.92
2019-02-06T08:30:24.676Z,32.58
2019-02-06T08:32:53.343Z,33.50
2019-02-06T08:35:22.229Z,39.90
2019-02-06T08:37:51.298Z,33.15
2019-02-06T08:40:23.020Z,33.13
2019-02-06T08:42:51.483Z,40.33
2019-02-06T08:45:20.250Z,30.62
2019-02-06T08:47:48.870Z,44.58
2019-02-06T08:50:21.778Z,36.65
2019-02-06T08:52:50.743Z,34.43
2019-02-06T08:55:25.011Z,40.05
2019-02-06T08:57:53.871Z,35.52
2019-02-06T09:00:33.902Z,34.90
2019-02-06T09:03:03.060Z,33.65
2019-02-06T09:05:32.323Z,28.12
2019-02-06T09:08:01.011Z,53.73
2019-02-06T09:10:31.281Z,34.90
2019-02-06T09:13:00.647Z,37.00
2019-02-06T09:15:29.526Z,34.58
2019-02-06T09:17:58.482Z,35.15
2019-02-06T09:20:28.654Z,26.95
2019-02-06T09:22:57.734Z,33.05
2019-02-06T09:25:27.998Z,33.10
2019-02-06T09:27:56.771Z,30.32
2019-02-06T09:30:28.379Z,31.12
2019-02-06T09:32:57.542Z,27.52
2019-02-06T09:35:26.440Z,29.82
2019-02-06T09:37:54.983Z,29.20
2019-02-06T09:40:25.750Z,26.80
2019-02-06T09:42:54.282Z,28.87
2019-02-06T09:45:22.963Z,27.52
2019-02-06T09:47:51.554Z,23.83
2019-02-06T09:50:23.287Z,15.78
2019-02-06T09:52:51.907Z,18.42
2019-02-06T09:55:20.500Z,21.87
2019-02-06T09:57:49.107Z,16.93
2019-02-06T10:00:20.675Z,20.48
2019-02-06T10:02:49.361Z,19.95
2019-02-06T10:05:18.427Z,19.87
2019-02-06T10:07:46.955Z,19.85
2019-02-06T10:10:20.118Z,20.02
2019-02-06T10:12:48.643Z,17.32
2019-02-06T10:15:25.547Z,16.37
2019-02-06T10:17:54.907Z,16.37
2019-02-06T10:20:28.991Z,16.87
2019-02-06T10:22:57.612Z,15.50
2019-02-06T10:25:26.198Z,16.30
2019-02-06T10:27:54.826Z,22.98
2019-02-06T10:30:29.108Z,16.32
2019-02-06T10:32:58.955Z,19.15
2019-02-06T10:35:27.571Z,19.15
2019-02-06T10:37:56.098Z,17.90
2019-02-06T10:40:24.711Z,16.05
2019-02-06T10:42:53.306Z,16.42
2019-02-06T10:45:22.180Z,15.75
2019-02-06T10:47:50.852Z,15.78
2019-02-06T10:50:39.060Z,18.65
2019-02-06T10:53:07.740Z,16.60
2019-02-06T10:55:36.407Z,17.35
2019-02-06T10:58:05.378Z,18.27
2019-02-06T11:00:46.671Z,15.18
2019-02-06T11:03:15.338Z,16.75
2019-02-06T11:05:44.099Z,25.75
2019-02-06T11:08:12.759Z,20.55
2019-02-06T11:10:41.472Z,23.77
2019-02-06T11:13:10.067Z,26.15
2019-02-06T11:15:38.665Z,21.57
2019-02-06T11:18:07.658Z,23.47
2019-02-06T11:20:40.059Z,22.95
2019-02-06T11:23:09.142Z,19.45
2019-02-06T11:25:37.743Z,20.68
2019-02-06T11:28:07.606Z,23.40
2019-02-06T11:30:38.194Z,23.00
2019-02-06T11:33:07.857Z,28.62
2019-02-06T11:35:36.852Z,24.12
2019-02-06T11:38:06.829Z,27.20
2019-02-06T11:40:35.801Z,27.90
2019-02-06T11:43:05.468Z,27.95
2019-02-06T11:45:35.130Z,24.65
2019-02-06T11:48:03.846Z,29.50
2019-02-06T11:50:42.415Z,24.65
2019-02-06T11:53:13.098Z,26.57
2019-02-06T11:55:41.766Z,23.07
2019-02-06T11:58:10.747Z,28.45
2019-02-06T12:00:42.561Z,23.85
2019-02-06T12:03:11.242Z,23.75
2019-02-06T12:05:39.907Z,27.30
2019-02-06T12:08:08.574Z,24.15
2019-02-06T12:10:37.247Z,20.32
2019-02-06T12:13:06.384Z,18.60
2019-02-06T12:15:37.652Z,20.60
2019-02-06T12:18:06.382Z,19.82
2019-02-06T12:20:35.563Z,22.25
2019-02-06T12:23:04.835Z,21.70
2019-02-06T12:25:34.455Z,22.05
2019-02-06T12:28:05.175Z,20.72
2019-02-06T12:30:36.898Z,25.92
2019-02-06T12:33:05.986Z,26.80
2019-02-06T12:35:34.660Z,23.32
2019-02-06T12:38:03.188Z,22.07
2019-02-06T12:40:31.869Z,23.35
2019-02-06T12:43:00.471Z,23.52
2019-02-06T12:45:29.150Z,26.90
2019-02-06T12:47:57.680Z,23.83
2019-02-06T12:50:26.646Z,21.45
2019-02-06T12:52:57.469Z,23.38
2019-02-06T12:55:31.195Z,22.62
2019-02-06T12:57:59.883Z,19.65
2019-02-06T13:00:33.656Z,26.93
2019-02-06T13:03:02.292Z,17.50
2019-02-06T13:05:31.259Z,22.75
2019-02-06T13:08:00.131Z,22.75
2019-02-06T13:10:33.996Z,24.85
2019-02-06T13:12:59.199Z,18.10
2019-02-06T13:15:27.883Z,21.85
2019-02-06T13:17:56.754Z,20.08
2019-02-06T13:20:30.699Z,19.67
2019-02-06T13:22:59.370Z,16.45
2019-02-06T13:25:28.046Z,20.30
2019-02-06T13:27:56.595Z,18.57
2019-02-06T13:30:37.971Z,19.55
2019-02-06T13:33:08.063Z,19.40
2019-02-06T13:35:38.782Z,19.27
2019-02-06T13:38:07.495Z,18.23
2019-02-06T13:40:45.107Z,18.35
2019-02-06T13:43:06.853Z,18.87
2019-02-06T13:45:44.005Z,15.40
2019-02-06T13:48:12.558Z,21.25
2019-02-06T13:50:41.226Z,18.32
2019-02-06T13:53:09.965Z,18.40
2019-02-06T13:55:38.659Z,21.37
2019-02-06T13:58:19.157Z,18.40
2019-02-06T14:00:42.043Z,21.73
2019-02-06T14:03:10.680Z,19.87
2019-02-06T14:05:39.902Z,16.80
2019-02-06T14:08:11.071Z,21.07
2019-02-06T14:10:40.117Z,23.92
2019-02-06T14:13:08.830Z,36.95
2019-02-06T14:15:42.427Z,20.37
2019-02-06T14:18:11.305Z,18.67
2019-02-06T14:20:40.395Z,19.23
2019-02-06T14:23:20.903Z,19.40
2019-02-06T14:25:55.171Z,20.92
2019-02-06T14:28:45.946Z,17.02
2019-02-06T14:31:23.327Z,18.60
2019-02-06T14:34:00.243Z,17.42
2019-02-06T14:36:54.477Z,18.65
2019-02-06T14:39:44.215Z,19.02
2019-02-06T14:42:21.667Z,20.37
2019-02-06T14:45:14.723Z,17.50
2019-02-06T14:48:01.331Z,21.02
2019-02-06T14:50:36.223Z,21.70
2019-02-06T14:53:27.279Z,20.17
2019-02-06T14:55:58.897Z,17.00
2019-02-06T14:58:39.320Z,28.65
2019-02-06T15:01:33.535Z,19.32
2019-02-06T15:04:15.861Z,24.05
2019-02-06T15:06:49.659Z,16.40
2019-02-06T15:09:26.739Z,20.12
2019-02-06T15:12:10.999Z,30.05
2019-02-06T15:14:51.415Z,20.60
2019-02-06T15:17:38.082Z,19.80
2019-02-06T15:20:15.523Z,20.60
2019-02-06T15:22:49.831Z,19.10
2019-02-06T15:25:36.745Z,20.23
2019-02-06T15:28:17.053Z,25.37
2019-02-06T15:31:06.832Z,24.50
2019-02-06T15:33:47.030Z,21.27
2019-02-06T15:36:27.436Z,21.55
2019-02-06T15:39:14.073Z,32.30
2019-02-06T15:41:51.687Z,27.70
2019-02-06T15:44:32.252Z,24.80
2019-02-06T15:47:10.130Z,17.12
2019-02-06T15:49:53.800Z,22.75
2019-02-06T15:52:34.372Z,17.90
2019-02-06T15:55:23.105Z,19.57
2019-02-06T15:58:03.472Z,18.92
2019-02-06T16:01:08.660Z,13.32
2019-02-06T16:04:03.569Z,19.42
2019-02-06T16:06:38.411Z,16.27
2019-02-06T16:09:12.578Z,14.63
2019-02-06T16:12:02.507Z,20.57
2019-02-06T16:14:43.321Z,18.02
2019-02-06T16:17:17.503Z,15.60
2019-02-06T16:19:49.131Z,22.20
2019-02-06T16:22:43.015Z,16.27
2019-02-06T16:25:17.511Z,14.85
2019-02-06T16:28:13.479Z,17.32
2019-02-06T16:30:49.327Z,22.05
2019-02-06T16:33:29.735Z,20.02
2019-02-06T16:36:07.111Z,24.25
2019-02-06T16:38:44.563Z,23.30
2019-02-06T16:41:36.983Z,23.27
2019-02-06T16:44:36.219Z,21.75
2019-02-06T16:47:10.407Z,18.23
2019-02-06T16:49:56.905Z,22.40
2019-02-06T16:52:31.601Z,17.37
2019-02-06T16:55:03.211Z,17.35
2019-02-06T16:57:50.174Z,16.60
2019-02-06T17:00:29.699Z,18.00
2019-02-06T17:03:01.627Z,17.27
2019-02-06T17:05:51.450Z,16.30
2019-02-06T17:08:39.492Z,17.32
2019-02-06T17:11:20.018Z,14.70
2019-02-06T17:14:06.571Z,18.77
2019-02-06T17:16:46.738Z,17.80
2019-02-06T17:19:23.903Z,18.92
2019-02-06T17:22:15.455Z,14.47
2019-02-06T17:25:08.357Z,15.95
2019-02-06T17:27:55.027Z,22.22
2019-02-06T17:30:38.771Z,18.70
2019-02-06T17:33:15.962Z,19.85
2019-02-06T17:35:50.507Z,20.05
2019-02-06T17:38:46.210Z,18.45
2019-02-06T17:41:23.570Z,21.35
2019-02-06T17:44:06.549Z,19.55
2019-02-06T17:46:47.282Z,20.68
2019-02-06T17:49:19.234Z,18.37
2019-02-06T17:51:59.366Z,22.22
2019-02-06T17:54:50.663Z,22.65
2019-02-06T17:57:19.290Z,22.45
2019-02-06T17:59:47.922Z,23.20
2019-02-06T18:02:16.790Z,25.05
2019-02-06T18:04:45.485Z,21.60
2019-02-06T18:07:14.154Z,24.47
2019-02-06T18:09:42.798Z,25.75
2019-02-06T18:12:11.469Z,19.40
2019-02-06T18:14:40.072Z,27.10
2019-02-06T18:17:08.621Z,21.12
2019-02-06T18:19:38.091Z,17.05
2019-02-06T18:22:07.287Z,25.15
2019-02-06T18:24:35.959Z,23.77
2019-02-06T18:27:05.650Z,22.22
2019-02-06T18:29:34.318Z,23.42
2019-02-06T18:32:03.010Z,26.20
2019-02-06T18:34:32.344Z,25.92
2019-02-06T18:37:02.523Z,23.42
2019-02-06T18:39:33.269Z,23.30
2019-02-06T18:42:03.482Z,19.80
2019-02-06T18:44:33.618Z,20.77
2019-02-06T18:47:02.909Z,22.02
2019-02-06T18:49:32.313Z,25.80
2019-02-06T18:52:02.306Z,29.65
2019-02-06T18:54:31.937Z,24.15
2019-02-06T18:57:02.384Z,35.08
2019-02-06T18:59:32.739Z,36.48
2019-02-06T19:02:02.342Z,32.48
2019-02-06T19:04:35.484Z,29.50
2019-02-06T19:07:05.828Z,29.35
2019-02-06T19:09:36.397Z,32.23
2019-02-06T19:12:06.629Z,26.55
2019-02-06T19:14:36.383Z,29.67
2019-02-06T19:17:07.944Z,36.42
2019-02-06T19:19:37.858Z,25.32
2019-02-06T19:22:08.982Z,28.57
2019-02-06T19:24:38.797Z,33.13
2019-02-06T19:27:10.717Z,27.55
2019-02-06T19:29:42.856Z,24.10
2019-02-06T19:32:12.553Z,22.67
2019-02-06T19:34:42.884Z,25.80
2019-02-06T19:37:12.507Z,21.68
2019-02-06T19:39:42.886Z,21.70
2019-02-06T19:42:13.356Z,22.60
2019-02-06T19:44:42.345Z,21.75
2019-02-06T19:47:10.936Z,22.00
2019-02-06T19:49:41.724Z,19.62
2019-02-06T19:52:10.411Z,22.22
2019-02-06T19:54:38.998Z,23.80
2019-02-06T19:57:07.547Z,25.15
2019-02-06T19:59:36.546Z,21.65
2019-02-06T20:02:05.526Z,22.85
2019-02-06T20:04:34.519Z,19.57
2019-02-06T20:07:03.115Z,21.05
2019-02-06T20:09:31.743Z,20.85
2019-02-06T20:12:00.410Z,18.42
2019-02-06T20:14:28.963Z,18.32
2019-02-06T20:16:58.294Z,28.05
2019-02-06T20:19:27.312Z,29.85
2019-02-06T20:21:59.018Z,28.25
2019-02-06T20:24:28.015Z,24.70
2019-02-06T20:26:57.245Z,28.15
2019-02-06T20:29:26.367Z,36.88
2019-02-06T20:31:55.757Z,30.60
2019-02-06T20:34:27.593Z,53.92
2019-02-06T20:36:57.264Z,39.33
2019-02-06T20:39:26.490Z,47.43
2019-02-06T20:41:55.131Z,53.40
2019-02-06T20:44:23.683Z,44.33
2019-02-06T20:46:52.210Z,44.77
2019-02-06T20:49:20.751Z,41.92
2019-02-06T20:51:49.637Z,58.20
2019-02-06T20:54:18.114Z,38.48
2019-02-06T20:56:46.676Z,38.48
2019-02-06T20:59:16.186Z,39.27
2019-02-06T21:01:44.682Z,41.63
2019-02-06T21:04:13.235Z,49.98
2019-02-06T21:06:41.832Z,44.33
2019-02-06T21:09:12.036Z,57.45
2019-02-06T21:11:40.566Z,47.03
2019-02-06T21:14:09.234Z,47.60
2019-02-06T21:16:37.857Z,54.03
2019-02-06T21:19:06.466Z,44.23
2019-02-06T21:21:35.011Z,41.30
2019-02-06T21:24:03.611Z,38.28
2019-02-06T21:26:32.406Z,36.63
2019-02-06T21:29:00.939Z,37.58
2019-02-06T21:31:29.534Z,57.60
2019-02-06T21:33:58.084Z,36.83
2019-02-06T21:36:27.517Z,44.60
2019-02-06T21:38:57.606Z,43.80
2019-02-06T21:41:26.525Z,38.35
2019-02-06T21:43:55.060Z,38.08
2019-02-06T21:46:23.590Z,43.85
2019-02-06T21:48:52.150Z,38.10
2019-02-06T21:51:20.690Z,38.40
2019-02-06T21:53:49.294Z,41.48
2019-02-06T21:56:17.847Z,36.73
2019-02-06T21:58:46.377Z,38.17
2019-02-06T22:01:14.926Z,33.08
2019-02-06T22:03:43.459Z,30.43
2019-02-06T22:06:12.055Z,26.65
2019-02-06T22:08:40.606Z,33.00
2019-02-06T22:11:09.206Z,31.97
2019-02-06T22:13:37.831Z,31.68
2019-02-06T22:16:06.438Z,26.33
2019-02-06T22:18:34.977Z,34.85
2019-02-06T22:21:03.585Z,30.00
2019-02-06T22:23:32.114Z,28.73
2019-02-06T22:26:00.738Z,26.02
2019-02-06T22:28:29.672Z,37.05
2019-02-06T22:30:58.271Z,25.00
2019-02-06T22:33:26.870Z,33.00
2019-02-06T22:35:55.470Z,36.85
2019-02-06T22:38:24.014Z,24.65
2019-02-06T22:40:52.686Z,29.95
2019-02-06T22:43:21.293Z,30.90
2019-02-06T22:45:49.908Z,31.57
2019-02-06T22:48:18.440Z,27.95
2019-02-06T22:50:46.986Z,31.33
2019-02-06T22:53:15.514Z,28.57
2019-02-06T22:55:44.050Z,38.00
2019-02-06T22:58:12.594Z,31.25
2019-02-06T23:00:57.508Z,31.40
2019-02-06T23:03:29.115Z,35.75
2019-02-06T23:05:57.715Z,33.48
2019-02-06T23:08:26.409Z,29.48
2019-02-06T23:10:55.069Z,30.00
2019-02-06T23:13:23.692Z,39.20
2019-02-06T23:15:52.391Z,29.92
2019-02-06T23:18:21.150Z,31.60
2019-02-06T23:20:49.683Z,31.12
2019-02-06T23:23:18.375Z,27.30
2019-02-06T23:25:46.897Z,31.30
2019-02-06T23:28:15.432Z,28.32
2019-02-06T23:30:44.048Z,29.82
2019-02-06T23:33:12.574Z,24.18
2019-02-06T23:35:41.199Z,21.45
2019-02-06T23:38:10.178Z,26.17
2019-02-06T23:40:38.851Z,25.30
2019-02-06T23:43:07.652Z,25.32
2019-02-06T23:45:36.265Z,24.20
2019-02-06T23:48:05.240Z,22.65
2019-02-06T23:50:33.851Z,23.22
2019-02-06T23:53:02.378Z,35.43
2019-02-06T23:55:30.920Z,24.67
2019-02-06T23:58:00.006Z,23.70
